createdAt,value
2023-02-06T00:00:10.918Z,103484.92
2023-02-06T00:02:40.846Z,103491.19
2023-02-06T00:05:10.913Z,103491.80
2023-02-06T00:07:40.766Z,103487.35
2023-02-06T00:10:10.729Z,103487.31
2023-02-06T00:12:40.589Z,103488.73
2023-02-06T00:15:10.564Z,103496.88
2023-02-06T00:17:40.574Z,103502.83
2023-02-06T00:20:10.617Z,103505.50
2023-02-06T00:22:40.922Z,103505.40
2023-02-06T00:25:09.110Z,103510.34
2023-02-06T00:27:37.040Z,103522.62
2023-02-06T00:30:06.491Z,103530.41
2023-02-06T00:32:35.641Z,103530.73
2023-02-06T00:35:06.323Z,103526.23
2023-02-06T00:37:36.013Z,103524.73
2023-02-06T00:40:08.106Z,103520.27
2023-02-06T00:42:37.824Z,103521.42
2023-02-06T00:45:08.947Z,103516.71
2023-02-06T00:47:38.793Z,103517.57
2023-02-06T00:50:09.408Z,103515.08
2023-02-06T00:52:39.113Z,103512.73
2023-02-06T00:55:08.936Z,103516.36
2023-02-06T00:57:38.833Z,103518.86
2023-02-06T01:00:10.175Z,103521.77
2023-02-06T01:02:40.321Z,103521.27
2023-02-06T01:05:11.239Z,103507.09
2023-02-06T01:07:42.549Z,103507.61
2023-02-06T01:10:13.587Z,103517.65
2023-02-06T01:12:43.628Z,103519.89
2023-02-06T01:15:14.444Z,103513.14
2023-02-06T01:17:44.532Z,103513.37
2023-02-06T01:20:14.608Z,103508.42
2023-02-06T01:22:44.590Z,103511.95
2023-02-06T01:25:14.441Z,103510.41
2023-02-06T01:27:44.556Z,103506.95
2023-02-06T01:30:14.692Z,103517.96
2023-02-06T01:32:44.530Z,103517.61
2023-02-06T01:35:14.307Z,103514.52
2023-02-06T01:37:44.199Z,103514.80
2023-02-06T01:40:16.896Z,103509.24
2023-02-06T01:42:46.902Z,103499.45
2023-02-06T01:45:39.582Z,103498.65
2023-02-06T01:48:17.191Z,103499.23
2023-02-06T01:50:53.829Z,103491.24
2023-02-06T01:53:25.305Z,103480.69
2023-02-06T01:55:59.731Z,103470.45
2023-02-06T01:58:37.241Z,103471.60
2023-02-06T02:01:08.844Z,103469.56
2023-02-06T02:03:44.180Z,103471.55
2023-02-06T02:06:20.101Z,103470.45
2023-02-06T02:08:54.548Z,103471.61
2023-02-06T02:11:37.500Z,103463.41
2023-02-06T02:14:12.640Z,103458.80
2023-02-06T02:16:52.141Z,103460.48
2023-02-06T02:19:50.804Z,103465.38
2023-02-06T02:22:50.175Z,103467.78
2023-02-06T02:25:40.956Z,103461.03
2023-02-06T02:28:48.001Z,103448.20
2023-02-06T02:31:42.186Z,103442.13
2023-02-06T02:34:17.709Z,103434.74
2023-02-06T02:37:20.037Z,103432.86
2023-02-06T02:40:08.071Z,103428.37
2023-02-06T02:43:22.960Z,103420.20
2023-02-06T02:46:24.394Z,103416.02
2023-02-06T02:49:03.607Z,103418.15
2023-02-06T02:51:35.880Z,103413.17
2023-02-06T02:54:06.429Z,103415.15
2023-02-06T02:56:36.949Z,103413.20
2023-02-06T02:59:25.391Z,103411.88
2023-02-06T03:02:11.834Z,103413.20
2023-02-06T03:04:50.617Z,103419.39
2023-02-06T03:07:54.732Z,103414.63
2023-02-06T03:11:06.015Z,103408.42
2023-02-06T03:13:48.850Z,103411.80
2023-02-06T03:16:48.794Z,103416.33
2023-02-06T03:19:27.293Z,103420.02
2023-02-06T03:21:57.497Z,103430.14
2023-02-06T03:24:34.785Z,103434.73
2023-02-06T03:27:13.674Z,103425.45
2023-02-06T03:29:49.025Z,103421.76
2023-02-06T03:32:26.997Z,103419.30
2023-02-06T03:35:05.939Z,103416.81
2023-02-06T03:37:38.292Z,103412.52
2023-02-06T03:40:09.799Z,103409.84
2023-02-06T03:42:52.607Z,103407.55
2023-02-06T03:45:31.739Z,103395.67
2023-02-06T03:48:27.749Z,103396.27
2023-02-06T03:51:03.742Z,103399.86
2023-02-06T03:53:37.798Z,103398.09
2023-02-06T03:56:15.882Z,103400.01
2023-02-06T03:58:45.775Z,103403.54
2023-02-06T04:01:17.653Z,103407.56
2023-02-06T04:03:47.254Z,103401.73
2023-02-06T04:06:17.207Z,103409.80
2023-02-06T04:08:47.322Z,103406.10
2023-02-06T04:11:17.203Z,103410.75
2023-02-06T04:13:47.056Z,103411.30
2023-02-06T04:16:17.028Z,103414.60
2023-02-06T04:18:46.824Z,103416.43
2023-02-06T04:21:17.085Z,103411.05
2023-02-06T04:23:46.795Z,103409.65
2023-02-06T04:26:16.710Z,103404.08
2023-02-06T04:28:46.463Z,103402.27
2023-02-06T04:31:16.450Z,103390.30
2023-02-06T04:33:46.500Z,103380.29
2023-02-06T04:36:16.298Z,103374.21
2023-02-06T04:38:46.103Z,103369.15
2023-02-06T04:41:15.872Z,103363.39
2023-02-06T04:43:44.429Z,103360.93
2023-02-06T04:46:12.866Z,103365.98
2023-02-06T04:48:41.169Z,103368.92
2023-02-06T04:51:10.267Z,103363.05
2023-02-06T04:53:38.468Z,103366.11
2023-02-06T04:56:10.707Z,103365.40
2023-02-06T04:58:39.727Z,103364.36
2023-02-06T05:01:09.603Z,103373.38
2023-02-06T05:03:37.816Z,103387.86
2023-02-06T05:06:06.967Z,103382.81
2023-02-06T05:08:34.719Z,103378.76
2023-02-06T05:11:03.536Z,103374.73
2023-02-06T05:13:33.797Z,103370.98
2023-02-06T05:16:14.036Z,103372.18
2023-02-06T05:18:45.034Z,103371.37
2023-02-06T05:21:16.078Z,103377.55
2023-02-06T05:23:45.858Z,103381.33
2023-02-06T05:26:15.897Z,103370.64
2023-02-06T05:28:45.682Z,103366.77
2023-02-06T05:31:19.803Z,103369.67
2023-02-06T05:33:54.916Z,103369.79
2023-02-06T05:36:25.004Z,103369.67
2023-02-06T05:38:55.228Z,103371.73
2023-02-06T05:41:25.017Z,103366.02
2023-02-06T05:43:54.809Z,103366.14
2023-02-06T05:46:24.986Z,103361.88
2023-02-06T05:48:54.811Z,103365.64
2023-02-06T05:51:25.113Z,103363.30
2023-02-06T05:53:54.935Z,103360.74
2023-02-06T05:56:24.716Z,103362.12
2023-02-06T05:58:53.454Z,103362.88
2023-02-06T06:01:21.553Z,103369.59
2023-02-06T06:03:50.001Z,103369.20
2023-02-06T06:06:18.468Z,103368.88
2023-02-06T06:08:47.100Z,103371.63
2023-02-06T06:11:16.676Z,103379.29
2023-02-06T06:13:43.969Z,103386.41
2023-02-06T06:16:12.359Z,103392.32
2023-02-06T06:18:40.779Z,103399.56
2023-02-06T06:21:09.239Z,103400.06
2023-02-06T06:23:37.569Z,103402.83
2023-02-06T06:26:06.064Z,103401.50
2023-02-06T06:28:35.957Z,103403.38
2023-02-06T06:31:05.053Z,103403.20
2023-02-06T06:33:34.999Z,103404.95
2023-02-06T06:36:02.685Z,103406.32
2023-02-06T06:38:31.029Z,103400.39
2023-02-06T06:40:59.423Z,103394.17
2023-02-06T06:43:28.571Z,103392.38
2023-02-06T06:45:57.120Z,103392.25
2023-02-06T06:48:24.659Z,103395.16
2023-02-06T06:50:53.440Z,103398.23
2023-02-06T06:53:22.322Z,103396.37
2023-02-06T06:55:50.095Z,103390.28
2023-02-06T06:58:18.249Z,103386.98
2023-02-06T07:00:47.211Z,103387.30
2023-02-06T07:03:15.168Z,103387.01
2023-02-06T07:05:43.561Z,103388.42
2023-02-06T07:08:11.981Z,103387.55
2023-02-06T07:10:40.454Z,103379.52
2023-02-06T07:13:09.090Z,103378.66
2023-02-06T07:15:37.657Z,103378.58
2023-02-06T07:18:05.666Z,103376.11
2023-02-06T07:20:34.832Z,103377.55
2023-02-06T07:23:02.506Z,103379.55
2023-02-06T07:25:30.884Z,103376.76
2023-02-06T07:27:59.562Z,103375.74
2023-02-06T07:30:27.936Z,103376.23
2023-02-06T07:32:56.110Z,103381.88
2023-02-06T07:35:24.886Z,103388.60
2023-02-06T07:37:54.183Z,103389.91
2023-02-06T07:40:25.122Z,103391.23
2023-02-06T07:42:52.996Z,103390.77
2023-02-06T07:45:22.728Z,103386.23
2023-02-06T07:47:52.478Z,103383.25
2023-02-06T07:50:22.443Z,103382.98
2023-02-06T07:52:52.168Z,103384.03
2023-02-06T07:55:21.885Z,103381.23
2023-02-06T07:57:51.727Z,103385.47
2023-02-06T08:00:21.888Z,103371.92
2023-02-06T08:02:51.904Z,103366.17
2023-02-06T08:05:21.707Z,103364.13
2023-02-06T08:07:52.184Z,103364.55
2023-02-06T08:10:21.601Z,103370.04
2023-02-06T08:12:51.315Z,103376.67
2023-02-06T08:15:21.149Z,103374.80
2023-02-06T08:17:51.307Z,103373.42
2023-02-06T08:20:21.099Z,103372.70
2023-02-06T08:22:50.891Z,103378.33
2023-02-06T08:25:20.691Z,103384.00
2023-02-06T08:27:55.212Z,103377.24
2023-02-06T08:30:24.654Z,103375.88
2023-02-06T08:32:54.547Z,103380.39
2023-02-06T08:35:24.323Z,103385.83
2023-02-06T08:37:54.149Z,103383.31
2023-02-06T08:40:24.033Z,103378.73
2023-02-06T08:42:53.888Z,103377.14
2023-02-06T08:45:23.691Z,103370.56
2023-02-06T08:47:53.581Z,103367.31
2023-02-06T08:50:23.360Z,103366.92
2023-02-06T08:52:53.196Z,103363.45
2023-02-06T08:55:25.181Z,103373.13
2023-02-06T08:57:53.197Z,103376.73
2023-02-06T09:00:23.448Z,103375.65
2023-02-06T09:02:54.690Z,103378.52
2023-02-06T09:05:24.334Z,103366.71
2023-02-06T09:07:54.052Z,103362.13
2023-02-06T09:10:27.755Z,103362.46
2023-02-06T09:12:57.680Z,103366.61
2023-02-06T09:15:24.617Z,103367.13
2023-02-06T09:17:54.373Z,103369.24
2023-02-06T09:20:26.676Z,103378.98
2023-02-06T09:22:55.720Z,103380.81
2023-02-06T09:25:25.436Z,103377.06
2023-02-06T09:27:57.051Z,103387.84
2023-02-06T09:30:25.468Z,103398.19
2023-02-06T09:32:55.323Z,103404.58
2023-02-06T09:35:25.201Z,103407.06
2023-02-06T09:37:54.996Z,103406.73
2023-02-06T09:40:29.526Z,103416.97
2023-02-06T09:43:00.959Z,103419.20
2023-02-06T09:45:33.144Z,103424.14
2023-02-06T09:48:20.890Z,103420.39
2023-02-06T09:51:26.399Z,103418.55
2023-02-06T09:54:41.260Z,103418.13
2023-02-06T09:57:48.871Z,103409.24
2023-02-06T10:00:41.818Z,103408.54
2023-02-06T10:04:13.014Z,103401.87
2023-02-06T10:06:55.189Z,103398.13
2023-02-06T10:09:43.873Z,103402.14
2023-02-06T10:12:28.610Z,103406.64
2023-02-06T10:15:07.327Z,103414.02
2023-02-06T10:17:53.958Z,103422.30
2023-02-06T10:20:36.212Z,103418.13
2023-02-06T10:23:23.732Z,103424.20
2023-02-06T10:26:17.626Z,103430.50
2023-02-06T10:28:55.931Z,103430.95
2023-02-06T10:31:25.693Z,103437.23
2023-02-06T10:34:31.539Z,103427.67
2023-02-06T10:37:28.592Z,103416.55
2023-02-06T10:40:18.663Z,103419.82
2023-02-06T10:43:20.371Z,103421.02
2023-02-06T10:46:05.396Z,103411.89
2023-02-06T10:48:46.615Z,103405.38
2023-02-06T10:51:32.597Z,103401.98
2023-02-06T10:54:39.740Z,103398.64
2023-02-06T10:57:20.193Z,103398.56
2023-02-06T10:59:54.021Z,103404.56
2023-02-06T11:02:49.037Z,103408.05
2023-02-06T11:05:31.758Z,103420.38
2023-02-06T11:08:18.283Z,103421.41
2023-02-06T11:10:49.117Z,103406.24
2023-02-06T11:13:34.719Z,103411.89
2023-02-06T11:16:16.602Z,103419.58
2023-02-06T11:18:51.026Z,103425.44
2023-02-06T11:21:51.034Z,103417.63
2023-02-06T11:24:24.775Z,103420.66
2023-02-06T11:27:18.935Z,103415.58
2023-02-06T11:29:52.165Z,103420.69
2023-02-06T11:32:38.063Z,103416.23
2023-02-06T11:35:26.474Z,103419.30
2023-02-06T11:38:27.819Z,103414.44
2023-02-06T11:41:05.845Z,103418.95
2023-02-06T11:43:41.804Z,103430.08
2023-02-06T11:46:11.525Z,103432.59
2023-02-06T11:48:55.507Z,103438.83
2023-02-06T11:51:44.465Z,103437.59
2023-02-06T11:54:22.157Z,103437.97
2023-02-06T11:57:07.874Z,103434.10
2023-02-06T12:00:01.109Z,103430.54
2023-02-06T12:02:35.984Z,103435.45
2023-02-06T12:05:19.424Z,103433.09
2023-02-06T12:08:13.800Z,103431.70
2023-02-06T12:10:58.483Z,103438.02
2023-02-06T12:13:37.268Z,103431.77
2023-02-06T12:16:13.219Z,103428.98
2023-02-06T12:18:49.450Z,103431.27
2023-02-06T12:21:47.139Z,103435.89
2023-02-06T12:24:38.442Z,103436.90
2023-02-06T12:27:26.826Z,103440.45
2023-02-06T12:30:03.816Z,103446.16
2023-02-06T12:32:42.039Z,103450.14
2023-02-06T12:35:34.994Z,103452.72
2023-02-06T12:38:21.068Z,103454.08
2023-02-06T12:41:05.844Z,103455.77
2023-02-06T12:43:39.455Z,103452.11
2023-02-06T12:46:28.204Z,103459.59
2023-02-06T12:48:59.658Z,103458.35
2023-02-06T12:51:46.518Z,103465.69
2023-02-06T12:54:42.485Z,103469.92
2023-02-06T12:57:26.874Z,103464.08
2023-02-06T13:00:44.902Z,103464.96
2023-02-06T13:03:43.708Z,103461.49
2023-02-06T13:06:21.074Z,103466.69
2023-02-06T13:08:56.815Z,103463.16
2023-02-06T13:11:41.633Z,103465.41
2023-02-06T13:14:24.019Z,103467.80
2023-02-06T13:17:16.928Z,103464.80
2023-02-06T13:19:45.777Z,103475.25
2023-02-06T13:22:19.404Z,103475.52
2023-02-06T13:24:50.031Z,103472.36
2023-02-06T13:27:19.029Z,103474.63
2023-02-06T13:29:52.730Z,103476.95
2023-02-06T13:32:22.728Z,103486.39
2023-02-06T13:35:18.621Z,103484.86
2023-02-06T13:37:51.448Z,103480.45
2023-02-06T13:40:24.076Z,103482.36
2023-02-06T13:43:26.214Z,103490.47
2023-02-06T13:46:05.843Z,103490.96
2023-02-06T13:49:11.865Z,103492.91
2023-02-06T13:52:26.881Z,103487.71
2023-02-06T13:55:37.832Z,103491.05
2023-02-06T13:58:32.368Z,103501.30
2023-02-06T14:01:11.463Z,103502.50
2023-02-06T14:03:49.790Z,103504.20
2023-02-06T14:06:55.126Z,103505.36
2023-02-06T14:09:44.033Z,103511.02
2023-02-06T14:12:35.445Z,103511.14
2023-02-06T14:16:02.941Z,103512.95
2023-02-06T14:18:50.782Z,103514.39
2023-02-06T14:21:55.249Z,103509.87
2023-02-06T14:25:04.178Z,103514.68
2023-02-06T14:27:59.499Z,103526.52
2023-02-06T14:30:57.960Z,103530.43
2023-02-06T14:34:18.847Z,103531.56
2023-02-06T14:36:57.667Z,103535.98
2023-02-06T14:39:42.925Z,103537.60
2023-02-06T14:42:20.880Z,103537.34
2023-02-06T14:45:21.714Z,103545.34
2023-02-06T14:47:54.852Z,103549.83
2023-02-06T14:50:27.859Z,103556.35
2023-02-06T14:53:18.039Z,103566.24
2023-02-06T14:55:47.861Z,103572.13
2023-02-06T14:58:24.982Z,103563.45
2023-02-06T15:00:57.503Z,103557.19
2023-02-06T15:03:27.720Z,103565.77
2023-02-06T15:06:05.802Z,103574.33
2023-02-06T15:08:36.544Z,103580.17
2023-02-06T15:11:19.611Z,103577.65
2023-02-06T15:13:53.569Z,103578.59
2023-02-06T15:16:23.351Z,103575.60
2023-02-06T15:19:11.205Z,103577.39
2023-02-06T15:21:43.110Z,103585.63
2023-02-06T15:24:34.184Z,103591.25
2023-02-06T15:27:28.027Z,103596.86
2023-02-06T15:29:57.721Z,103596.59
2023-02-06T15:32:35.674Z,103605.09
2023-02-06T15:35:34.926Z,103605.99
2023-02-06T15:38:14.232Z,103611.53
2023-02-06T15:40:47.927Z,103619.34
2023-02-06T15:43:25.684Z,103620.25
2023-02-06T15:46:03.015Z,103615.08
2023-02-06T15:48:53.851Z,103620.45
2023-02-06T15:51:39.213Z,103616.98
2023-02-06T15:54:25.915Z,103620.27
2023-02-06T15:57:22.444Z,103620.39
2023-02-06T15:59:52.478Z,103625.06
2023-02-06T16:02:35.198Z,103628.66
2023-02-06T16:05:09.200Z,103626.98
2023-02-06T16:07:39.109Z,103628.23
2023-02-06T16:10:08.783Z,103636.31
2023-02-06T16:12:43.398Z,103636.48
2023-02-06T16:15:33.584Z,103644.27
2023-02-06T16:18:26.619Z,103641.88
2023-02-06T16:21:22.779Z,103639.20
2023-02-06T16:24:00.220Z,103644.40
2023-02-06T16:26:31.374Z,103646.61
2023-02-06T16:29:10.441Z,103646.81
2023-02-06T16:31:43.926Z,103652.54
2023-02-06T16:34:34.675Z,103647.25
2023-02-06T16:37:11.959Z,103644.73
2023-02-06T16:39:44.247Z,103646.80
2023-02-06T16:42:33.506Z,103650.48
2023-02-06T16:45:23.360Z,103658.16
2023-02-06T16:47:54.789Z,103663.52
2023-02-06T16:50:24.592Z,103667.05
2023-02-06T16:52:58.482Z,103674.92
2023-02-06T16:55:28.875Z,103674.23
2023-02-06T16:58:01.028Z,103678.36
2023-02-06T17:00:31.801Z,103680.94
2023-02-06T17:03:00.792Z,103682.72
2023-02-06T17:05:31.393Z,103688.81
2023-02-06T17:08:02.224Z,103692.15
2023-02-06T17:10:32.000Z,103693.77
2023-02-06T17:13:02.132Z,103692.62
2023-02-06T17:15:32.124Z,103690.39
2023-02-06T17:18:01.845Z,103690.70
2023-02-06T17:20:38.548Z,103697.11
2023-02-06T17:23:12.781Z,103700.41
2023-02-06T17:25:43.612Z,103699.75
2023-02-06T17:28:18.107Z,103706.73
2023-02-06T17:30:50.748Z,103701.59
2023-02-06T17:33:20.926Z,103714.05
2023-02-06T17:35:50.703Z,103705.10
2023-02-06T17:38:20.507Z,103703.64
2023-02-06T17:40:50.385Z,103712.93
2023-02-06T17:43:20.479Z,103716.14
2023-02-06T17:45:48.805Z,103714.20
2023-02-06T17:48:16.964Z,103715.50
2023-02-06T17:50:46.738Z,103713.20
2023-02-06T17:53:14.572Z,103713.98
2023-02-06T17:55:44.993Z,103716.11
2023-02-06T17:58:14.189Z,103718.15
2023-02-06T18:00:42.644Z,103717.73
2023-02-06T18:03:11.315Z,103715.42
2023-02-06T18:05:39.505Z,103717.40
2023-02-06T18:08:07.895Z,103719.05
2023-02-06T18:10:39.422Z,103714.33
2023-02-06T18:13:09.505Z,103717.13
2023-02-06T18:15:39.556Z,103714.77
2023-02-06T18:18:09.568Z,103713.84
2023-02-06T18:20:41.460Z,103721.20
2023-02-06T18:23:13.220Z,103718.45
2023-02-06T18:25:44.216Z,103721.27
2023-02-06T18:28:15.152Z,103727.18
2023-02-06T18:30:45.963Z,103723.13
2023-02-06T18:33:15.900Z,103713.92
2023-02-06T18:35:46.513Z,103713.27
2023-02-06T18:38:17.730Z,103706.69
2023-02-06T18:40:47.844Z,103709.92
2023-02-06T18:43:17.834Z,103708.34
2023-02-06T18:45:47.710Z,103704.65
2023-02-06T18:48:17.931Z,103708.95
2023-02-06T18:50:47.874Z,103705.73
2023-02-06T18:53:17.773Z,103707.25
2023-02-06T18:55:58.235Z,103708.48
2023-02-06T18:58:28.001Z,103708.14
2023-02-06T19:00:57.810Z,103706.54
2023-02-06T19:03:27.698Z,103706.64
2023-02-06T19:05:57.727Z,103709.83
2023-02-06T19:08:27.851Z,103719.96
2023-02-06T19:10:57.621Z,103726.46
2023-02-06T19:13:27.958Z,103735.00
2023-02-06T19:16:12.485Z,103736.20
2023-02-06T19:18:47.954Z,103726.92
2023-02-06T19:21:21.822Z,103726.13
2023-02-06T19:23:58.509Z,103721.95
2023-02-06T19:26:29.238Z,103722.09
2023-02-06T19:28:59.878Z,103723.38
2023-02-06T19:31:27.701Z,103733.08
2023-02-06T19:34:00.438Z,103734.36
2023-02-06T19:36:29.961Z,103737.39
2023-02-06T19:39:06.010Z,103737.86
2023-02-06T19:41:36.630Z,103742.98
2023-02-06T19:44:11.056Z,103743.82
2023-02-06T19:46:40.801Z,103746.69
2023-02-06T19:49:11.343Z,103749.51
2023-02-06T19:51:44.788Z,103758.11
2023-02-06T19:54:15.614Z,103756.50
2023-02-06T19:56:48.885Z,103756.34
2023-02-06T19:59:25.012Z,103757.80
2023-02-06T20:02:00.393Z,103766.21
2023-02-06T20:04:35.934Z,103769.01
2023-02-06T20:07:05.351Z,103766.22
2023-02-06T20:09:36.587Z,103756.01
2023-02-06T20:12:12.139Z,103754.50
2023-02-06T20:14:42.175Z,103757.44
2023-02-06T20:17:12.448Z,103765.06
2023-02-06T20:19:42.223Z,103772.81
2023-02-06T20:22:12.093Z,103779.38
2023-02-06T20:24:41.934Z,103786.69
2023-02-06T20:27:13.248Z,103781.21
2023-02-06T20:29:45.791Z,103773.55
2023-02-06T20:32:18.307Z,103773.14
2023-02-06T20:34:48.118Z,103774.56
2023-02-06T20:37:18.151Z,103775.91
2023-02-06T20:39:49.172Z,103780.85
2023-02-06T20:42:22.307Z,103774.06
2023-02-06T20:44:52.720Z,103772.05
2023-02-06T20:47:20.714Z,103767.46
2023-02-06T20:49:50.561Z,103765.17
2023-02-06T20:52:19.257Z,103771.24
2023-02-06T20:54:47.537Z,103776.83
2023-02-06T20:57:16.006Z,103773.79
2023-02-06T20:59:44.734Z,103777.63
2023-02-06T21:02:13.243Z,103773.70
2023-02-06T21:04:41.345Z,103773.84
2023-02-06T21:07:09.849Z,103778.14
2023-02-06T21:09:38.531Z,103781.07
2023-02-06T21:12:12.212Z,103783.71
2023-02-06T21:14:42.434Z,103784.39
2023-02-06T21:17:12.357Z,103781.65
2023-02-06T21:19:42.132Z,103776.44
2023-02-06T21:22:12.196Z,103782.46
2023-02-06T21:24:41.908Z,103790.56
2023-02-06T21:27:11.642Z,103796.35
2023-02-06T21:29:41.553Z,103792.78
2023-02-06T21:32:14.278Z,103801.80
2023-02-06T21:34:44.248Z,103802.16
2023-02-06T21:37:14.492Z,103801.15
2023-02-06T21:39:44.459Z,103804.00
2023-02-06T21:42:20.865Z,103802.86
2023-02-06T21:44:48.735Z,103802.98
2023-02-06T21:47:15.989Z,103804.23
2023-02-06T21:49:46.712Z,103801.34
2023-02-06T21:52:16.467Z,103795.77
2023-02-06T21:54:46.279Z,103787.83
2023-02-06T21:57:16.222Z,103777.33
2023-02-06T21:59:46.170Z,103778.67
2023-02-06T22:02:16.051Z,103782.58
2023-02-06T22:04:44.849Z,103780.89
2023-02-06T22:07:13.431Z,103784.64
2023-02-06T22:09:41.677Z,103784.08
2023-02-06T22:12:16.852Z,103783.22
2023-02-06T22:14:46.720Z,103789.28
2023-02-06T22:17:16.567Z,103790.02
2023-02-06T22:25:08.335Z,103791.59
2023-02-06T22:27:39.144Z,103799.89
2023-02-06T22:30:10.557Z,103802.98
2023-02-06T22:32:40.871Z,103805.09
2023-02-06T22:35:10.697Z,103807.70
2023-02-06T22:37:43.072Z,103809.02
2023-02-06T22:40:13.930Z,103810.37
2023-02-06T22:42:43.801Z,103814.58
2023-02-06T22:45:13.537Z,103819.37
2023-02-06T22:47:43.399Z,103816.75
2023-02-06T22:50:13.259Z,103813.81
2023-02-06T22:53:01.611Z,103807.09
2023-02-06T22:55:49.575Z,103806.83
2023-02-06T22:58:19.469Z,103809.45
2023-02-06T23:00:49.409Z,103811.00
2023-02-06T23:03:19.256Z,103810.64
2023-02-06T23:05:49.018Z,103818.70
2023-02-06T23:08:19.230Z,103822.16
2023-02-06T23:10:49.035Z,103826.43
2023-02-06T23:13:18.818Z,103831.59
2023-02-06T23:15:48.595Z,103833.41
2023-02-06T23:18:18.566Z,103830.98
2023-02-06T23:20:56.728Z,103832.92
2023-02-06T23:23:27.302Z,103831.58
2023-02-06T23:25:57.745Z,103832.48
2023-02-06T23:28:27.983Z,103839.45
2023-02-06T23:30:57.849Z,103833.48
2023-02-06T23:33:27.906Z,103834.59
2023-02-06T23:36:08.516Z,103833.05
2023-02-06T23:38:39.210Z,103837.51
2023-02-06T23:41:15.962Z,103838.39
2023-02-06T23:44:01.256Z,103837.83
2023-02-06T23:46:34.684Z,103839.77
2023-02-06T23:49:06.435Z,103837.63
2023-02-06T23:51:38.165Z,103840.42
2023-02-06T23:54:09.065Z,103845.80
2023-02-06T23:56:39.012Z,103844.73
2023-02-06T23:59:08.992Z,103844.73
